Kodiak Enterprise — WDB4540 — position and weather

sailwx.info

Track history (hours):
 
Tides and Currents Weather Stations Pressure Air Temp Water Temp Dewpoint Dewpoint Depression Visibility Wind Speed Wind Dir Waves Ship Positions

Kodiak Enterprise

Owner: TRIDENT SEAFOODS CORP, SEATTLE, WA. More information available from US FCC via Universal Licensing System.

Last reported at 2018-Jun-17 12:05 UTC. Time now 2018-Jun-19 18:21 UTC.
Position N 49°40' W 129°33'.

Length 77 m; draft 6 m.

Type: Ship. MMSI: 368038000.

Date/timePositionNaut miles runAvg speedWind from/ knotsBaromVisibWave heightAir tempDewpointWater temp
2018-Jun-17 12:05N 49°40' W 129°33'211.2
2018-Jun-17 11:53N 49°40' W 129°29'411.3
2018-Jun-17 11:31N 49°39' W 129°23'611.2
2018-Jun-17 11:00N 49°38' W 129°14'611.5
2018-Jun-17 10:30N 49°37' W 129°06'611.4
2018-Jun-17 10:00N 49°35' W 128°57'611.4
2018-Jun-17 09:30N 49°34' W 128°48'611.1
2018-Jun-17 08:58N 49°33' W 128°40'510.6
2018-Jun-17 08:31N 49°31' W 128°32'610.9
2018-Jun-17 08:00N 49°30' W 128°24'1910.4
2018-Jun-17 06:09N 49°26' W 127°55'210.7
2018-Jun-17 05:57N 49°25' W 127°52'510.6
2018-Jun-17 05:30N 49°24' W 127°45'710.5
2018-Jun-17 04:52N 49°23' W 127°35'410.8
2018-Jun-17 04:31N 49°21' W 127°29'610.8
2018-Jun-17 03:59N 49°19' W 127°21'511.2
2018-Jun-17 03:30N 49°16' W 127°14'611.4
2018-Jun-17 02:59N 49°14' W 127°06'511.6
2018-Jun-17 02:31N 49°11' W 126°59'611.7
2018-Jun-17 02:01N 49°08' W 126°51'612.0
2018-Jun-17 01:31N 49°06' W 126°43'612.2
2018-Jun-17 01:01N 49°03' W 126°34'612.0
2018-Jun-17 00:30N 49°00' W 126°26'612.1
2018-Jun-17 00:01N 48°58' W 126°18'612.6
2018-Jun-16 23:30N 48°55' W 126°09'612.7
2018-Jun-16 23:00N 48°52' W 125°60'612.4
2018-Jun-16 22:29N 48°50' W 125°51'612.0
2018-Jun-16 22:00N 48°48' W 125°43'611.9
2018-Jun-16 21:31N 48°46' W 125°35'611.7
2018-Jun-16 21:00N 48°43' W 125°26'612.1
2018-Jun-16 20:31N 48°41' W 125°18'612.2
2018-Jun-16 20:00N 48°39' W 125°09'612.1
2018-Jun-16 19:30N 48°36' W 125°01'612.3
2018-Jun-16 19:01N 48°33' W 124°53'613.0
2018-Jun-16 18:31N 48°31' W 124°44'611.3
2018-Jun-16 18:00N 48°27' W 124°37'1 2.5
2018-Jun-16 17:30N 48°28' W 124°38'2 4.5
2018-Jun-16 17:00N 48°28' W 124°35'510.3
2018-Jun-16 16:30N 48°26' W 124°27'714.3
2018-Jun-16 16:00N 48°23' W 124°18'713.9
2018-Jun-16 15:30N 48°21' W 124°08'713.6
2018-Jun-16 15:00N 48°18' W 123°58'713.8
2018-Jun-16 14:30N 48°17' W 123°48'713.3
2018-Jun-16 14:00N 48°16' W 123°38'812.2
2018-Jun-16 13:21N 48°15' W 123°26'412.4
2018-Jun-16 13:00N 48°14' W 123°20'612.8
2018-Jun-16 12:30N 48°13' W 123°11'712.9
2018-Jun-16 11:59N 48°12' W 123°00'612.1
2018-Jun-16 11:28N 48°12' W 122°51'510.6
2018-Jun-16 10:59N 48°10' W 122°44'511.0
2018-Jun-16 10:30N 48°06' W 122°39'612.0
2018-Jun-16 10:00N 48°00' W 122°36'612.0
2018-Jun-16 09:30N 47°56' W 122°30'612.4
2018-Jun-16 09:00N 47°50' W 122°27'612.2
2018-Jun-16 08:30N 47°44' W 122°26'612.4
2018-Jun-16 08:00N 47°38' W 122°26'4 8.4
2018-Jun-16 07:30N 47°35' W 122°21'0 0.0
2018-Jun-16 07:00N 47°35' W 122°21'0 0.0
2018-Jun-16 06:30N 47°35' W 122°21'0 0.0
2018-Jun-16 06:00N 47°35' W 122°21'0 0.0
2018-Jun-16 05:30N 47°35' W 122°21'0 0.0
2018-Jun-16 05:00N 47°35' W 122°21'0 0.0
2018-Jun-16 04:30N 47°35' W 122°21'0 0.0
2018-Jun-16 03:59N 47°35' W 122°21'0 0.0
2018-Jun-16 03:30N 47°35' W 122°21'0 0.0
2018-Jun-16 03:00N 47°35' W 122°21'2 3.1
2018-Jun-16 02:30N 47°36' W 122°23'5 9.7
2018-Jun-16 02:00N 47°31' W 122°25'611.6
2018-Jun-16 01:30N 47°26' W 122°23'5 9.8
2018-Jun-16 01:00N 47°21' W 122°23'5 9.1
2018-Jun-16 00:30N 47°17' W 122°26'0 0.5
2018-Jun-15 23:56N 47°17' W 122°26'1 2.1
2018-Jun-15 23:30N 47°17' W 122°25'0 0.0
2018-Jun-15 09:56N 47°17' W 122°24'0 0.0
2018-Jun-15 08:20N 47°17' W 122°24'0 0.1
2018-Jun-15 07:56N 47°17' W 122°24'0 0.0
2018-Jun-15 07:20N 47°17' W 122°24'0 0.0
2018-Jun-15 06:56N 47°17' W 122°24'0 0.0
2018-Jun-15 06:13N 47°17' W 122°24'0 0.0
2018-Jun-15 05:55N 47°17' W 122°24'0 0.0
2018-Jun-15 05:19N 47°17' W 122°24'0 0.0
2018-Jun-15 04:49N 47°17' W 122°24'0 0.0
2018-Jun-15 04:25N 47°17' W 122°24'0 0.0
2018-Jun-15 03:55N 47°17' W 122°24'0 0.0
2018-Jun-15 00:31N 47°17' W 122°24'0 0.0
2018-Jun-15 00:25N 47°17' W 122°24'0 0.0
2018-Jun-14 23:01N 47°17' W 122°24'0 0.0
2018-Jun-14 22:55N 47°17' W 122°24'0 0.0
2018-Jun-14 19:31N 47°17' W 122°24'0 0.0
2018-Jun-14 16:25N 47°17' W 122°24'0 0.0
2018-Jun-14 15:55N 47°17' W 122°24'0 0.0
2018-Jun-14 15:19N 47°17' W 122°24'0 0.0
2018-Jun-14 14:49N 47°17' W 122°24'0 0.0
2018-Jun-14 14:25N 47°17' W 122°24'0 0.0
2018-Jun-14 13:49N 47°17' W 122°24'0 0.0
2018-Jun-14 13:19N 47°17' W 122°24'0 0.0
2018-Jun-14 12:55N 47°17' W 122°24'0 0.0
2018-Jun-14 12:25N 47°17' W 122°24'0 0.0
2018-Jun-14 11:55N 47°17' W 122°24'0 0.1
2018-Jun-14 11:25N 47°17' W 122°24'0 0.1
2018-Jun-14 10:49N 47°17' W 122°24'0 0.0
2018-Jun-14 10:25N 47°17' W 122°24'0 0.0
2018-Jun-14 09:55N 47°17' W 122°24'0 0.0
2018-Jun-14 09:01N 47°17' W 122°24'0 0.4
2018-Jun-14 08:55N 47°17' W 122°24'0 0.0
2018-Jun-14 08:01N 47°17' W 122°24'0 0.1
2018-Jun-14 07:31N 47°17' W 122°24'0 0.4
2018-Jun-14 07:25N 47°17' W 122°24'0 0.0
2018-Jun-14 06:55N 47°17' W 122°24'0 0.0
2018-Jun-14 06:25N 47°17' W 122°24'0 0.0
2018-Jun-14 05:19N 47°17' W 122°24'0 0.0
2018-Jun-14 04:55N 47°17' W 122°24'0 0.0
2018-Jun-14 04:25N 47°17' W 122°24'0 0.0
2018-Jun-14 03:55N 47°17' W 122°24'0 0.0
2018-Jun-14 03:01N 47°17' W 122°24'0 0.0
2018-Jun-14 02:49N 47°17' W 122°24'0 0.0
2018-Jun-14 02:19N 47°17' W 122°24'0 0.0
2018-Jun-14 01:55N 47°17' W 122°24'0 0.0
2018-Jun-14 01:25N 47°17' W 122°24'0 0.0
2018-Jun-14 00:55N 47°17' W 122°24'0 0.0
2018-Jun-14 00:25N 47°17' W 122°24'0 0.0
2018-Jun-13 23:55N 47°17' W 122°24'0 0.0
2018-Jun-13 23:25N 47°17' W 122°24'0 0.0
2018-Jun-13 22:55N 47°17' W 122°24'0 0.0
2018-Jun-13 22:25N 47°17' W 122°24'0 0.0
2018-Jun-13 21:55N 47°17' W 122°24'0 0.0
2018-Jun-13 21:13N 47°17' W 122°24'0 0.0
2018-Jun-13 20:55N 47°17' W 122°24'0 0.1
2018-Jun-13 19:31N 47°17' W 122°24'0 0.0
2018-Jun-13 19:25N 47°17' W 122°24'0 0.0
2018-Jun-13 18:55N 47°17' W 122°24'0 0.0
2018-Jun-13 18:25N 47°17' W 122°24'0 0.0
2018-Jun-13 17:55N 47°17' W 122°24'0 0.0
2018-Jun-13 17:25N 47°17' W 122°24'0 0.0
2018-Jun-13 17:01N 47°17' W 122°24'0 0.0
2018-Jun-13 16:30N 47°17' W 122°24'0 0.0
2018-Jun-13 16:00N 47°17' W 122°24'0 0.0
2018-Jun-13 15:30N 47°17' W 122°24'0 0.0
2018-Jun-13 15:00N 47°17' W 122°24'0 0.0
2018-Jun-13 14:30N 47°17' W 122°24'0 0.0
2018-Jun-13 13:48N 47°17' W 122°24'0 0.0
2018-Jun-13 13:30N 47°17' W 122°24'0 0.0
2018-Jun-13 13:00N 47°17' W 122°24'0 0.0
2018-Jun-13 12:30N 47°17' W 122°24'0 0.0
2018-Jun-13 12:00N 47°17' W 122°24'0 0.0
2018-Jun-13 11:12N 47°17' W 122°24'0 0.0
2018-Jun-13 11:00N 47°17' W 122°24'0 0.0
2018-Jun-13 10:30N 47°17' W 122°24'0 0.0
2018-Jun-13 09:00N 47°17' W 122°24'0 0.0
2018-Jun-13 08:30N 47°17' W 122°24'0 0.0
2018-Jun-13 08:00N 47°17' W 122°24'0 0.0
2018-Jun-13 07:24N 47°17' W 122°24'0 0.0
2018-Jun-13 06:54N 47°17' W 122°24'0 0.0
2018-Jun-13 06:30N 47°17' W 122°24'0 0.0
2018-Jun-13 06:00N 47°17' W 122°24'0 0.0
2018-Jun-13 05:30N 47°17' W 122°24'0 0.0
2018-Jun-13 04:54N 47°17' W 122°24'0 0.0
2018-Jun-13 04:30N 47°17' W 122°24'0 0.0
2018-Jun-13 03:42N 47°17' W 122°24'0 0.0
2018-Jun-13 03:30N 47°17' W 122°24'0 0.0
2018-Jun-13 02:06N 47°17' W 122°24'0 0.0
2018-Jun-13 01:48N 47°17' W 122°24'0 0.0
2018-Jun-13 01:00N 47°17' W 122°24'0 0.0
2018-Jun-13 00:30N 47°17' W 122°24'0 0.0
2018-Jun-13 00:00N 47°17' W 122°24'0 0.0
2018-Jun-12 23:12N 47°17' W 122°24'0 0.0
2018-Jun-12 22:48N 47°17' W 122°24'0 0.0
2018-Jun-12 22:24N 47°17' W 122°24'0 0.0
2018-Jun-12 22:00N 47°17' W 122°24'0 0.5
2018-Jun-12 21:29N 47°17' W 122°25'2 5.1
2018-Jun-12 21:00N 47°18' W 122°28'611.8
2018-Jun-12 20:30N 47°23' W 122°22'612.2
2018-Jun-12 20:00N 47°28' W 122°26'613.1
2018-Jun-12 19:30N 47°35' W 122°28'612.6
2018-Jun-12 19:00N 47°41' W 122°28'612.3
2018-Jun-12 18:30N 47°47' W 122°27'612.2
2018-Jun-12 18:00N 47°53' W 122°29'611.0
2018-Jun-12 17:29N 47°58' W 122°35'510.5
2018-Jun-12 17:00N 48°02' W 122°39'5 9.5
2018-Jun-12 16:29N 48°07' W 122°40'25 9.6
2018-Jun-12 13:55N 48°12' W 123°16'4 9.0
2018-Jun-12 13:28N 48°13' W 123°23'5 9.8
2018-Jun-12 13:00N 48°13' W 123°29'5 9.9
2018-Jun-12 12:30N 48°14' W 123°37'510.8
2018-Jun-12 12:00N 48°13' W 123°45'611.2
2018-Jun-12 11:30N 48°14' W 123°53'511.0
2018-Jun-12 11:00N 48°15' W 124°01'611.6
2018-Jun-12 10:30N 48°18' W 124°09'611.8
2018-Jun-12 10:00N 48°20' W 124°17'611.8
2018-Jun-12 09:30N 48°22' W 124°25'611.8
2018-Jun-12 09:00N 48°25' W 124°33'612.3
2018-Jun-12 08:30N 48°27' W 124°42'612.5
2018-Jun-12 08:00N 48°27' W 124°51'611.9
2018-Jun-12 07:29N 48°23' W 124°59'712.7
2018-Jun-12 06:56N 48°17' W 125°02'2111.5
2018-Jun-12 05:05N 47°57' W 125°15'112.0
2018-Jun-12 05:00N 47°56' W 125°15'5512.1
2018-Jun-12 00:25N 47°01' W 125°06'512.3
2018-Jun-12 00:00N 46°56' W 125°05'612.2
2018-Jun-11 23:30N 46°50' W 125°04'612.1
2018-Jun-11 23:00N 46°44' W 125°02'611.8
2018-Jun-11 22:30N 46°38' W 125°01'812.0
2018-Jun-11 21:52N 46°31' W 124°59'411.9
2018-Jun-11 21:30N 46°26' W 124°58'612.0
2018-Jun-11 21:00N 46°21' W 124°59'612.3
2018-Jun-11 20:29N 46°14' W 124°60'612.4
2018-Jun-11 20:00N 46°08' W 125°01'612.2
2018-Jun-11 19:30N 46°02' W 125°00'612.0
2018-Jun-11 19:00N 45°56' W 124°59'611.6
2018-Jun-11 18:30N 45°50' W 124°58'911.6
2018-Jun-11 17:42N 45°41' W 124°57'211.4
2018-Jun-11 17:29N 45°39' W 124°57'611.5
2018-Jun-11 17:00N 45°33' W 124°58'611.3
2018-Jun-11 16:30N 45°28' W 124°58'811.4
2018-Jun-11 15:46N 45°19' W 125°01'  
Track history (hours):
 
Tides and Currents Weather Stations Pressure Air Temp Water Temp Dewpoint Dewpoint Depression Visibility Wind Speed Wind Dir Waves Ship Positions

Kodiak Enterprise

Owner: TRIDENT SEAFOODS CORP, SEATTLE, WA. More information available from US FCC via Universal Licensing System.

Last reported at 2018-Jun-17 12:05 UTC. Time now 2018-Jun-19 18:21 UTC.
Position N 49°40' W 129°33'.

Length 77 m; draft 6 m.

Type: Ship. MMSI: 368038000.

Date/timePositionNaut miles runAvg speedWind from/ knotsBaromVisibWave heightAir tempDewpointWater temp
2018-Jun-17 12:05N 49°40' W 129°33'211.2
2018-Jun-17 11:53N 49°40' W 129°29'411.3
2018-Jun-17 11:31N 49°39' W 129°23'611.2
2018-Jun-17 11:00N 49°38' W 129°14'611.5
2018-Jun-17 10:30N 49°37' W 129°06'611.4
2018-Jun-17 10:00N 49°35' W 128°57'611.4
2018-Jun-17 09:30N 49°34' W 128°48'611.1
2018-Jun-17 08:58N 49°33' W 128°40'510.6
2018-Jun-17 08:31N 49°31' W 128°32'610.9
2018-Jun-17 08:00N 49°30' W 128°24'1910.4
2018-Jun-17 06:09N 49°26' W 127°55'210.7
2018-Jun-17 05:57N 49°25' W 127°52'510.6
2018-Jun-17 05:30N 49°24' W 127°45'710.5
2018-Jun-17 04:52N 49°23' W 127°35'410.8
2018-Jun-17 04:31N 49°21' W 127°29'610.8
2018-Jun-17 03:59N 49°19' W 127°21'511.2
2018-Jun-17 03:30N 49°16' W 127°14'611.4
2018-Jun-17 02:59N 49°14' W 127°06'511.6
2018-Jun-17 02:31N 49°11' W 126°59'611.7
2018-Jun-17 02:01N 49°08' W 126°51'612.0
2018-Jun-17 01:31N 49°06' W 126°43'612.2
2018-Jun-17 01:01N 49°03' W 126°34'612.0
2018-Jun-17 00:30N 49°00' W 126°26'612.1
2018-Jun-17 00:01N 48°58' W 126°18'612.6
2018-Jun-16 23:30N 48°55' W 126°09'612.7
2018-Jun-16 23:00N 48°52' W 125°60'612.4
2018-Jun-16 22:29N 48°50' W 125°51'612.0
2018-Jun-16 22:00N 48°48' W 125°43'611.9
2018-Jun-16 21:31N 48°46' W 125°35'611.7
2018-Jun-16 21:00N 48°43' W 125°26'612.1
2018-Jun-16 20:31N 48°41' W 125°18'612.2
2018-Jun-16 20:00N 48°39' W 125°09'612.1
2018-Jun-16 19:30N 48°36' W 125°01'612.3
2018-Jun-16 19:01N 48°33' W 124°53'613.0
2018-Jun-16 18:31N 48°31' W 124°44'611.3
2018-Jun-16 18:00N 48°27' W 124°37'1 2.5
2018-Jun-16 17:30N 48°28' W 124°38'2 4.5
2018-Jun-16 17:00N 48°28' W 124°35'510.3
2018-Jun-16 16:30N 48°26' W 124°27'714.3
2018-Jun-16 16:00N 48°23' W 124°18'713.9
2018-Jun-16 15:30N 48°21' W 124°08'713.6
2018-Jun-16 15:00N 48°18' W 123°58'713.8
2018-Jun-16 14:30N 48°17' W 123°48'713.3
2018-Jun-16 14:00N 48°16' W 123°38'812.2
2018-Jun-16 13:21N 48°15' W 123°26'412.4
2018-Jun-16 13:00N 48°14' W 123°20'612.8
2018-Jun-16 12:30N 48°13' W 123°11'712.9
2018-Jun-16 11:59N 48°12' W 123°00'612.1
2018-Jun-16 11:28N 48°12' W 122°51'510.6
2018-Jun-16 10:59N 48°10' W 122°44'511.0
2018-Jun-16 10:30N 48°06' W 122°39'612.0
2018-Jun-16 10:00N 48°00' W 122°36'612.0
2018-Jun-16 09:30N 47°56' W 122°30'612.4
2018-Jun-16 09:00N 47°50' W 122°27'612.2
2018-Jun-16 08:30N 47°44' W 122°26'612.4
2018-Jun-16 08:00N 47°38' W 122°26'4 8.4
2018-Jun-16 07:30N 47°35' W 122°21'0 0.0
2018-Jun-16 07:00N 47°35' W 122°21'0 0.0
2018-Jun-16 06:30N 47°35' W 122°21'0 0.0
2018-Jun-16 06:00N 47°35' W 122°21'0 0.0
2018-Jun-16 05:30N 47°35' W 122°21'0 0.0
2018-Jun-16 05:00N 47°35' W 122°21'0 0.0
2018-Jun-16 04:30N 47°35' W 122°21'0 0.0
2018-Jun-16 03:59N 47°35' W 122°21'0 0.0
2018-Jun-16 03:30N 47°35' W 122°21'0 0.0
2018-Jun-16 03:00N 47°35' W 122°21'2 3.1
2018-Jun-16 02:30N 47°36' W 122°23'5 9.7
2018-Jun-16 02:00N 47°31' W 122°25'611.6
2018-Jun-16 01:30N 47°26' W 122°23'5 9.8
2018-Jun-16 01:00N 47°21' W 122°23'5 9.1
2018-Jun-16 00:30N 47°17' W 122°26'0 0.5
2018-Jun-15 23:56N 47°17' W 122°26'1 2.1
2018-Jun-15 23:30N 47°17' W 122°25'0 0.0
2018-Jun-15 09:56N 47°17' W 122°24'0 0.0
2018-Jun-15 08:20N 47°17' W 122°24'0 0.1
2018-Jun-15 07:56N 47°17' W 122°24'0 0.0
2018-Jun-15 07:20N 47°17' W 122°24'0 0.0
2018-Jun-15 06:56N 47°17' W 122°24'0 0.0
2018-Jun-15 06:13N 47°17' W 122°24'0 0.0
2018-Jun-15 05:55N 47°17' W 122°24'0 0.0
2018-Jun-15 05:19N 47°17' W 122°24'0 0.0
2018-Jun-15 04:49N 47°17' W 122°24'0 0.0
2018-Jun-15 04:25N 47°17' W 122°24'0 0.0
2018-Jun-15 03:55N 47°17' W 122°24'0 0.0
2018-Jun-15 00:31N 47°17' W 122°24'0 0.0
2018-Jun-15 00:25N 47°17' W 122°24'0 0.0
2018-Jun-14 23:01N 47°17' W 122°24'0 0.0
2018-Jun-14 22:55N 47°17' W 122°24'0 0.0
2018-Jun-14 19:31N 47°17' W 122°24'0 0.0
2018-Jun-14 16:25N 47°17' W 122°24'0 0.0
2018-Jun-14 15:55N 47°17' W 122°24'0 0.0
2018-Jun-14 15:19N 47°17' W 122°24'0 0.0
2018-Jun-14 14:49N 47°17' W 122°24'0 0.0
2018-Jun-14 14:25N 47°17' W 122°24'0 0.0
2018-Jun-14 13:49N 47°17' W 122°24'0 0.0
2018-Jun-14 13:19N 47°17' W 122°24'0 0.0
2018-Jun-14 12:55N 47°17' W 122°24'0 0.0
2018-Jun-14 12:25N 47°17' W 122°24'0 0.0
2018-Jun-14 11:55N 47°17' W 122°24'0 0.1
2018-Jun-14 11:25N 47°17' W 122°24'0 0.1
2018-Jun-14 10:49N 47°17' W 122°24'0 0.0
2018-Jun-14 10:25N 47°17' W 122°24'0 0.0
2018-Jun-14 09:55N 47°17' W 122°24'0 0.0
2018-Jun-14 09:01N 47°17' W 122°24'0 0.4
2018-Jun-14 08:55N 47°17' W 122°24'0 0.0
2018-Jun-14 08:01N 47°17' W 122°24'0 0.1
2018-Jun-14 07:31N 47°17' W 122°24'0 0.4
2018-Jun-14 07:25N 47°17' W 122°24'0 0.0
2018-Jun-14 06:55N 47°17' W 122°24'0 0.0
2018-Jun-14 06:25N 47°17' W 122°24'0 0.0
2018-Jun-14 05:19N 47°17' W 122°24'0 0.0
2018-Jun-14 04:55N 47°17' W 122°24'0 0.0
2018-Jun-14 04:25N 47°17' W 122°24'0 0.0
2018-Jun-14 03:55N 47°17' W 122°24'0 0.0
2018-Jun-14 03:01N 47°17' W 122°24'0 0.0
2018-Jun-14 02:49N 47°17' W 122°24'0 0.0
2018-Jun-14 02:19N 47°17' W 122°24'0 0.0
2018-Jun-14 01:55N 47°17' W 122°24'0 0.0
2018-Jun-14 01:25N 47°17' W 122°24'0 0.0
2018-Jun-14 00:55N 47°17' W 122°24'0 0.0
2018-Jun-14 00:25N 47°17' W 122°24'0 0.0
2018-Jun-13 23:55N 47°17' W 122°24'0 0.0
2018-Jun-13 23:25N 47°17' W 122°24'0 0.0
2018-Jun-13 22:55N 47°17' W 122°24'0 0.0
2018-Jun-13 22:25N 47°17' W 122°24'0 0.0
2018-Jun-13 21:55N 47°17' W 122°24'0 0.0
2018-Jun-13 21:13N 47°17' W 122°24'0 0.0
2018-Jun-13 20:55N 47°17' W 122°24'0 0.1
2018-Jun-13 19:31N 47°17' W 122°24'0 0.0
2018-Jun-13 19:25N 47°17' W 122°24'0 0.0
2018-Jun-13 18:55N 47°17' W 122°24'0 0.0
2018-Jun-13 18:25N 47°17' W 122°24'0 0.0
2018-Jun-13 17:55N 47°17' W 122°24'0 0.0
2018-Jun-13 17:25N 47°17' W 122°24'0 0.0
2018-Jun-13 17:01N 47°17' W 122°24'0 0.0
2018-Jun-13 16:30N 47°17' W 122°24'0 0.0
2018-Jun-13 16:00N 47°17' W 122°24'0 0.0
2018-Jun-13 15:30N 47°17' W 122°24'0 0.0
2018-Jun-13 15:00N 47°17' W 122°24'0 0.0
2018-Jun-13 14:30N 47°17' W 122°24'0 0.0
2018-Jun-13 13:48N 47°17' W 122°24'0 0.0
2018-Jun-13 13:30N 47°17' W 122°24'0 0.0
2018-Jun-13 13:00N 47°17' W 122°24'0 0.0
2018-Jun-13 12:30N 47°17' W 122°24'0 0.0
2018-Jun-13 12:00N 47°17' W 122°24'0 0.0
2018-Jun-13 11:12N 47°17' W 122°24'0 0.0
2018-Jun-13 11:00N 47°17' W 122°24'0 0.0
2018-Jun-13 10:30N 47°17' W 122°24'0 0.0
2018-Jun-13 09:00N 47°17' W 122°24'0 0.0
2018-Jun-13 08:30N 47°17' W 122°24'0 0.0
2018-Jun-13 08:00N 47°17' W 122°24'0 0.0
2018-Jun-13 07:24N 47°17' W 122°24'0 0.0
2018-Jun-13 06:54N 47°17' W 122°24'0 0.0
2018-Jun-13 06:30N 47°17' W 122°24'0 0.0
2018-Jun-13 06:00N 47°17' W 122°24'0 0.0
2018-Jun-13 05:30N 47°17' W 122°24'0 0.0
2018-Jun-13 04:54N 47°17' W 122°24'0 0.0
2018-Jun-13 04:30N 47°17' W 122°24'0 0.0
2018-Jun-13 03:42N 47°17' W 122°24'0 0.0
2018-Jun-13 03:30N 47°17' W 122°24'0 0.0
2018-Jun-13 02:06N 47°17' W 122°24'0 0.0
2018-Jun-13 01:48N 47°17' W 122°24'0 0.0
2018-Jun-13 01:00N 47°17' W 122°24'0 0.0
2018-Jun-13 00:30N 47°17' W 122°24'0 0.0
2018-Jun-13 00:00N 47°17' W 122°24'0 0.0
2018-Jun-12 23:12N 47°17' W 122°24'0 0.0
2018-Jun-12 22:48N 47°17' W 122°24'0 0.0
2018-Jun-12 22:24N 47°17' W 122°24'0 0.0
2018-Jun-12 22:00N 47°17' W 122°24'0 0.5
2018-Jun-12 21:29N 47°17' W 122°25'2 5.1
2018-Jun-12 21:00N 47°18' W 122°28'611.8
2018-Jun-12 20:30N 47°23' W 122°22'612.2
2018-Jun-12 20:00N 47°28' W 122°26'613.1
2018-Jun-12 19:30N 47°35' W 122°28'612.6
2018-Jun-12 19:00N 47°41' W 122°28'612.3
2018-Jun-12 18:30N 47°47' W 122°27'612.2
2018-Jun-12 18:00N 47°53' W 122°29'611.0
2018-Jun-12 17:29N 47°58' W 122°35'510.5
2018-Jun-12 17:00N 48°02' W 122°39'5 9.5
2018-Jun-12 16:29N 48°07' W 122°40'25 9.6
2018-Jun-12 13:55N 48°12' W 123°16'4 9.0
2018-Jun-12 13:28N 48°13' W 123°23'5 9.8
2018-Jun-12 13:00N 48°13' W 123°29'5 9.9
2018-Jun-12 12:30N 48°14' W 123°37'510.8
2018-Jun-12 12:00N 48°13' W 123°45'611.2
2018-Jun-12 11:30N 48°14' W 123°53'511.0
2018-Jun-12 11:00N 48°15' W 124°01'611.6
2018-Jun-12 10:30N 48°18' W 124°09'611.8
2018-Jun-12 10:00N 48°20' W 124°17'611.8
2018-Jun-12 09:30N 48°22' W 124°25'611.8
2018-Jun-12 09:00N 48°25' W 124°33'612.3
2018-Jun-12 08:30N 48°27' W 124°42'612.5
2018-Jun-12 08:00N 48°27' W 124°51'611.9
2018-Jun-12 07:29N 48°23' W 124°59'712.7
2018-Jun-12 06:56N 48°17' W 125°02'2111.5
2018-Jun-12 05:05N 47°57' W 125°15'112.0
2018-Jun-12 05:00N 47°56' W 125°15'5512.1
2018-Jun-12 00:25N 47°01' W 125°06'512.3
2018-Jun-12 00:00N 46°56' W 125°05'612.2
2018-Jun-11 23:30N 46°50' W 125°04'612.1
2018-Jun-11 23:00N 46°44' W 125°02'611.8
2018-Jun-11 22:30N 46°38' W 125°01'812.0
2018-Jun-11 21:52N 46°31' W 124°59'411.9
2018-Jun-11 21:30N 46°26' W 124°58'612.0
2018-Jun-11 21:00N 46°21' W 124°59'612.3
2018-Jun-11 20:29N 46°14' W 124°60'612.4
2018-Jun-11 20:00N 46°08' W 125°01'612.2
2018-Jun-11 19:30N 46°02' W 125°00'612.0
2018-Jun-11 19:00N 45°56' W 124°59'611.6
2018-Jun-11 18:30N 45°50' W 124°58'911.6
2018-Jun-11 17:42N 45°41' W 124°57'211.4
2018-Jun-11 17:29N 45°39' W 124°57'611.5
2018-Jun-11 17:00N 45°33' W 124°58'611.3
2018-Jun-11 16:30N 45°28' W 124°58'811.4
2018-Jun-11 15:46N 45°19' W 125°01'  

Dump ship's entire track history